Time;durP1;ratioP1;P1;durP2;ratioP2;P2;SDS_P1;SDS_P2;PMS_P1;PMS_P2;Temp;Humidity;BMP_temperature;BMP_pressure;BME280_temperature;BME280_humidity;BME280_pressure;Samples;Min_cycle;Max_cycle;Signal;HPM_P1;HPM_P2
2022/03/07 00:01:55;;;;;;;207.98;117.30;;;2.10;1.00;;;;;;5056461;28;20049;-79
2022/03/07 00:04:22;;;;;;;175.20;98.72;;;2.10;1.00;;;;;;5054782;28;20115;-78
2022/03/07 00:06:50;;;;;;;186.00;103.30;;;2.10;1.00;;;;;;5055871;28;20117;-80
2022/03/07 00:09:18;;;;;;;205.23;109.03;;;2.20;1.00;;;;;;5056619;28;20045;-80
2022/03/07 00:11:46;;;;;;;159.85;90.05;;;2.10;1.00;;;;;;5040817;28;20049;-79
2022/03/07 00:14:13;;;;;;;139.63;81.05;;;2.10;99.90;;;;;;5054882;28;20065;-79
2022/03/07 00:16:41;;;;;;;132.85;77.65;;;2.10;99.90;;;;;;5051963;28;20045;-78
2022/03/07 00:19:10;;;;;;;131.10;76.22;;;2.10;99.90;;;;;;5059428;28;20041;-80
2022/03/07 00:21:38;;;;;;;159.63;89.43;;;2.10;99.90;;;;;;5071828;28;20048;-80
2022/03/07 00:24:07;;;;;;;188.27;106.90;;;2.20;99.90;;;;;;5081911;28;20039;-80
2022/03/07 00:26:35;;;;;;;172.20;97.07;;;2.30;1.00;;;;;;5084265;28;20071;-77
2022/03/07 00:29:03;;;;;;;141.57;82.25;;;2.30;1.00;;;;;;5064519;28;20083;-77
2022/03/07 00:31:31;;;;;;;159.10;91.80;;;2.30;99.90;;;;;;5061445;28;20132;-79
2022/03/07 00:33:58;;;;;;;154.38;90.82;;;2.30;99.90;;;;;;5051158;28;20144;-78
2022/03/07 00:36:27;;;;;;;161.68;95.10;;;2.30;1.00;;;;;;5079721;28;20040;-79
2022/03/07 00:38:54;;;;;;;158.75;91.03;;;2.40;1.00;;;;;;5079833;28;20064;-80
2022/03/07 00:41:22;;;;;;;159.68;94.03;;;2.40;1.00;;;;;;5086716;28;20483;-79
2022/03/07 00:43:50;;;;;;;204.25;116.50;;;2.40;1.00;;;;;;5097940;28;20525;-78
2022/03/07 00:46:17;;;;;;;214.75;118.95;;;2.40;1.00;;;;;;5099615;28;20102;-77
2022/03/07 00:48:44;;;;;;;212.30;118.10;;;2.40;1.00;;;;;;5099055;28;20039;-79
2022/03/07 00:51:12;;;;;;;190.73;112.07;;;2.30;1.00;;;;;;5098907;28;20116;-79
2022/03/07 00:53:42;;;;;;;219.05;120.20;;;2.20;1.00;;;;;;5082017;28;20052;-78
2022/03/07 00:56:10;;;;;;;206.73;115.05;;;2.20;1.00;;;;;;5041426;28;20048;-78
2022/03/07 00:58:37;;;;;;;217.90;117.80;;;2.20;1.00;;;;;;5085686;28;20069;-78
2022/03/07 01:01:05;;;;;;;234.10;131.52;;;2.10;1.00;;;;;;5081170;28;20047;-79
2022/03/07 01:03:32;;;;;;;217.15;120.38;;;2.10;1.00;;;;;;5098741;28;20044;-80
2022/03/07 01:06:00;;;;;;;184.32;108.07;;;2.10;1.00;;;;;;5102239;28;20077;-80
2022/03/07 01:08:28;;;;;;;162.70;98.07;;;2.20;52.40;;;;;;5085600;28;20048;-79
2022/03/07 01:10:57;;;;;;;160.80;91.95;;;2.20;95.50;;;;;;5090773;28;20048;-78
2022/03/07 01:13:25;;;;;;;160.13;89.75;;;2.20;1.00;;;;;;5078568;28;20127;-79
2022/03/07 01:15:52;;;;;;;158.40;92.85;;;2.20;1.00;;;;;;5090503;28;20044;-78
2022/03/07 01:18:21;;;;;;;166.27;95.28;;;2.20;1.00;;;;;;5068082;28;20119;-78
2022/03/07 01:20:49;;;;;;;146.52;85.90;;;2.20;1.00;;;;;;5098467;28;20048;-79
2022/03/07 01:23:17;;;;;;;141.93;81.65;;;2.30;1.00;;;;;;5067150;28;20136;-79
2022/03/07 01:25:44;;;;;;;136.25;80.93;;;2.30;1.00;;;;;;5093614;28;20067;-80
2022/03/07 01:28:13;;;;;;;131.55;79.38;;;2.30;1.00;;;;;;5102215;28;20136;-78
2022/03/07 01:30:42;;;;;;;137.52;82.43;;;2.30;1.00;;;;;;5099366;28;20494;-80
2022/03/07 01:33:10;;;;;;;123.82;74.15;;;2.40;1.00;;;;;;5098510;28;20040;-79
2022/03/07 01:35:37;;;;;;;133.52;77.07;;;2.40;1.00;;;;;;5098486;28;20040;-77
2022/03/07 01:38:05;;;;;;;121.07;73.28;;;2.40;1.00;;;;;;5099686;28;20123;-78
2022/03/07 01:40:33;;;;;;;128.40;74.82;;;2.40;1.00;;;;;;5075509;28;20090;-79
2022/03/07 01:43:00;;;;;;;133.32;78.97;;;2.40;1.00;;;;;;5063525;28;20546;-80
2022/03/07 01:45:29;;;;;;;125.13;76.53;;;2.30;1.00;;;;;;5060811;28;20048;-80
2022/03/07 01:47:57;;;;;;;126.07;73.55;;;2.30;1.00;;;;;;5080093;28;20048;-79
2022/03/07 01:50:25;;;;;;;117.53;71.63;;;2.30;1.00;;;;;;5060668;28;20530;-79
2022/03/07 01:52:53;;;;;;;113.72;67.60;;;2.30;1.00;;;;;;5060326;28;20463;-78
2022/03/07 01:55:22;;;;;;;102.65;63.42;;;2.40;1.00;;;;;;5079087;28;20044;-78
2022/03/07 01:57:54;;;;;;;130.27;75.80;;;2.40;1.00;;;;;;5081267;28;20055;-79
2022/03/07 02:00:24;;;;;;;141.23;80.25;;;2.40;1.00;;;;;;5098594;28;20055;-79
2022/03/07 02:02:53;;;;;;;117.07;68.90;;;2.40;1.00;;;;;;5080535;28;20469;-80
2022/03/07 02:05:30;;;;;;;108.47;65.13;;;2.30;1.00;;;;;;5096977;28;20048;-80
2022/03/07 02:08:05;;;;;;;96.25;57.78;;;2.30;1.00;;;;;;5078506;28;20044;-79
2022/03/07 02:10:42;;;;;;;93.20;57.80;;;2.20;1.00;;;;;;5073203;28;20050;-80
2022/03/07 02:13:14;;;;;;;86.07;52.75;;;2.00;1.00;;;;;;5066769;28;20106;-80
2022/03/07 02:15:45;;;;;;;74.97;47.35;;;2.00;1.00;;;;;;5069595;28;20072;-79
2022/03/07 02:18:15;;;;;;;75.18;48.33;;;2.00;99.90;;;;;;5061446;28;20044;-80
2022/03/07 02:20:43;;;;;;;73.93;47.10;;;2.10;99.90;;;;;;5040438;28;20053;-79
2022/03/07 02:23:12;;;;;;;73.78;45.88;;;2.10;99.90;;;;;;5069960;28;20043;-79
2022/03/07 02:25:40;;;;;;;75.80;47.20;;;2.20;1.00;;;;;;5067026;28;20040;-78
2022/03/07 02:28:09;;;;;;;72.32;45.95;;;2.30;99.90;;;;;;5071308;28;20044;-81
2022/03/07 02:30:37;;;;;;;66.90;44.50;;;2.30;99.90;;;;;;5059412;28;20044;-77
2022/03/07 02:33:05;;;;;;;74.38;47.60;;;2.20;99.10;;;;;;5056478;28;20068;-77
2022/03/07 02:35:33;;;;;;;76.15;46.85;;;2.10;99.90;;;;;;5056895;28;20063;-77
2022/03/07 02:38:02;;;;;;;74.75;45.72;;;2.10;99.90;;;;;;5074749;28;20048;-78
2022/03/07 02:40:32;;;;;;;71.80;45.20;;;2.00;99.90;;;;;;5077883;28;20047;-76
2022/03/07 02:43:00;;;;;;;62.58;41.03;;;2.00;1.00;;;;;;5077436;28;20055;-77
2022/03/07 02:45:29;;;;;;;67.10;43.75;;;2.00;1.00;;;;;;5093661;28;20118;-77
2022/03/07 02:47:57;;;;;;;63.63;39.35;;;2.00;1.00;;;;;;5077097;28;20047;-76
2022/03/07 02:50:25;;;;;;;68.28;41.90;;;2.10;1.00;;;;;;5081662;28;20051;-77
2022/03/07 02:52:53;;;;;;;74.47;45.42;;;2.10;1.00;;;;;;5056163;28;20052;-77
2022/03/07 02:55:22;;;;;;;74.18;45.83;;;2.20;1.00;;;;;;5074882;28;20057;-78
2022/03/07 02:57:52;;;;;;;79.70;51.03;;;2.20;1.00;;;;;;5102004;28;20042;-77
2022/03/07 03:00:20;;;;;;;84.75;51.55;;;2.30;1.00;;;;;;5104319;28;20048;-77
2022/03/07 03:02:48;;;;;;;85.00;53.65;;;2.20;99.90;;;;;;5076639;28;20055;-77
2022/03/07 03:05:18;;;;;;;94.15;55.78;;;2.10;99.90;;;;;;5094637;28;20044;-76
2022/03/07 03:07:47;;;;;;;94.95;55.22;;;2.10;99.90;;;;;;5093075;28;20051;-77
2022/03/07 03:10:15;;;;;;;92.65;56.85;;;2.10;99.90;;;;;;5062436;28;20415;-76
2022/03/07 03:12:43;;;;;;;90.63;55.20;;;2.00;99.90;;;;;;5037082;28;20075;-77
2022/03/07 03:15:12;;;;;;;95.75;55.05;;;2.00;99.90;;;;;;5061366;28;20119;-77
2022/03/07 03:17:40;;;;;;;92.43;54.80;;;2.00;99.90;;;;;;5094585;28;20047;-77
2022/03/07 03:20:11;;;;;;;95.18;56.92;;;2.00;99.90;;;;;;5076094;28;20051;-77
2022/03/07 03:22:38;;;;;;;93.30;56.72;;;2.00;1.00;;;;;;5094361;28;20064;-77
2022/03/07 03:25:07;;;;;;;97.20;58.25;;;2.00;99.90;;;;;;5093341;28;20044;-78
2022/03/07 03:27:35;;;;;;;93.30;57.30;;;2.00;99.90;;;;;;5094409;28;20074;-77
2022/03/07 03:30:05;;;;;;;92.75;55.63;;;2.20;1.00;;;;;;5076649;28;20218;-77
2022/03/07 03:32:35;;;;;;;89.25;55.28;;;2.20;1.00;;;;;;5077175;28;20060;-77
2022/03/07 03:35:03;;;;;;;91.70;54.28;;;2.20;99.90;;;;;;5076425;28;20142;-77
2022/03/07 03:37:32;;;;;;;86.60;52.90;;;2.20;99.90;;;;;;5060695;28;20098;-76
2022/03/07 03:40:00;;;;;;;94.43;55.08;;;2.20;99.90;;;;;;5067352;28;20044;-77
2022/03/07 03:42:28;;;;;;;88.93;54.47;;;2.20;82.80;;;;;;5093722;28;20055;-78
2022/03/07 03:44:56;;;;;;;90.55;55.28;;;2.20;99.90;;;;;;5093214;28;20044;-77
2022/03/07 03:47:24;;;;;;;92.32;54.33;;;2.20;99.90;;;;;;5070884;28;20055;-77
2022/03/07 03:49:53;;;;;;;89.65;53.63;;;2.30;99.90;;;;;;5078066;28;20037;-78
2022/03/07 03:52:21;;;;;;;87.28;54.10;;;2.20;99.90;;;;;;5069256;28;20120;-77
2022/03/07 03:54:48;;;;;;;95.30;54.95;;;2.20;99.90;;;;;;5056538;28;20040;-77
2022/03/07 03:57:16;;;;;;;101.85;56.75;;;2.10;99.90;;;;;;5059164;28;20068;-76
2022/03/07 03:59:43;;;;;;;94.78;55.90;;;2.10;99.90;;;;;;5074161;28;20049;-77
2022/03/07 04:02:11;;;;;;;94.93;57.08;;;2.10;99.90;;;;;;5041508;28;20450;-77
2022/03/07 04:04:39;;;;;;;95.95;56.75;;;2.10;99.90;;;;;;5039624;28;20033;-76
2022/03/07 04:07:07;;;;;;;95.20;57.88;;;2.10;1.00;;;;;;5075236;28;20059;-77
2022/03/07 04:09:35;;;;;;;101.90;64.28;;;2.20;1.00;;;;;;5059862;28;20063;-77
2022/03/07 04:12:03;;;;;;;97.05;60.75;;;2.20;1.00;;;;;;5057227;28;20060;-77
2022/03/07 04:14:31;;;;;;;92.07;58.50;;;2.20;1.00;;;;;;5061326;28;20084;-77
2022/03/07 04:16:59;;;;;;;94.45;59.65;;;2.30;99.90;;;;;;5097227;28;20359;-77
2022/03/07 04:19:27;;;;;;;87.47;56.67;;;2.30;99.90;;;;;;5099576;28;20044;-77
2022/03/07 04:21:54;;;;;;;84.85;51.08;;;2.30;99.90;;;;;;5094008;28;20074;-78
2022/03/07 04:24:23;;;;;;;86.00;53.13;;;2.30;99.90;;;;;;5075470;28;20040;-78
2022/03/07 04:26:51;;;;;;;86.75;51.67;;;2.40;99.90;;;;;;5076781;28;20118;-78
2022/03/07 04:29:18;;;;;;;82.25;51.70;;;2.50;99.90;;;;;;5066525;28;20045;-78
2022/03/07 04:31:46;;;;;;;80.13;49.42;;;2.50;99.90;;;;;;5056525;28;20049;-77
2022/03/07 04:34:14;;;;;;;81.97;49.70;;;2.60;26.80;;;;;;5079005;28;20045;-76
2022/03/07 04:36:42;;;;;;;81.55;50.10;;;2.60;45.60;;;;;;5092593;28;20067;-76
2022/03/07 04:39:11;;;;;;;81.18;50.42;;;2.60;1.00;;;;;;5071746;28;20053;-77
2022/03/07 04:41:43;;;;;;;80.72;49.42;;;2.60;1.00;;;;;;5063716;28;20067;-77
2022/03/07 04:44:10;;;;;;;79.43;49.45;;;2.60;1.00;;;;;;5060738;28;20049;-77
2022/03/07 04:46:39;;;;;;;82.75;51.45;;;2.60;1.00;;;;;;5059494;28;20037;-77
2022/03/07 04:49:09;;;;;;;85.65;51.65;;;2.60;1.00;;;;;;5058448;28;20055;-76
2022/03/07 04:51:39;;;;;;;78.75;49.58;;;2.60;1.00;;;;;;5056475;28;20047;-77
2022/03/07 04:54:07;;;;;;;82.13;51.92;;;2.50;1.00;;;;;;5057468;28;20105;-77
2022/03/07 04:56:34;;;;;;;80.80;49.10;;;2.50;1.00;;;;;;5057071;28;20049;-77
2022/03/07 04:59:03;;;;;;;82.47;51.80;;;2.50;1.00;;;;;;5055481;28;20048;-77
2022/03/07 05:01:31;;;;;;;85.40;52.33;;;2.40;1.00;;;;;;5056391;28;20060;-77
2022/03/07 05:03:58;;;;;;;89.63;52.67;;;2.40;72.00;;;;;;5056051;28;20033;-76
2022/03/07 05:06:26;;;;;;;88.80;55.33;;;2.40;1.00;;;;;;5054037;28;20057;-79
2022/03/07 05:08:53;;;;;;;90.47;55.40;;;2.40;99.90;;;;;;5037216;28;20049;-76
2022/03/07 05:11:21;;;;;;;95.35;56.72;;;2.40;99.90;;;;;;5051751;28;20037;-77
2022/03/07 05:13:50;;;;;;;90.53;57.15;;;2.40;17.10;;;;;;5060702;28;20040;-78
2022/03/07 05:16:19;;;;;;;85.47;55.28;;;2.40;1.00;;;;;;5061763;28;20045;-78
2022/03/07 05:18:47;;;;;;;80.25;51.05;;;2.50;91.80;;;;;;5061781;28;20041;-77
2022/03/07 05:21:14;;;;;;;76.13;51.10;;;2.40;90.40;;;;;;5069045;28;20088;-76
2022/03/07 05:23:42;;;;;;;73.47;48.42;;;2.40;99.90;;;;;;5059600;28;20066;-77
2022/03/07 05:26:09;;;;;;;70.25;47.28;;;2.40;1.00;;;;;;5076319;28;20049;-76
2022/03/07 05:28:37;;;;;;;70.55;46.10;;;2.40;99.90;;;;;;5083318;28;20036;-76
2022/03/07 05:31:05;;;;;;;64.03;42.30;;;2.50;99.90;;;;;;5084137;28;20071;-77
2022/03/07 05:33:34;;;;;;;65.60;42.22;;;2.50;99.90;;;;;;5082913;28;20044;-77
2022/03/07 05:36:01;;;;;;;67.20;42.35;;;2.60;99.90;;;;;;5082468;28;20049;-77
2022/03/07 05:38:29;;;;;;;69.40;43.20;;;2.50;16.00;;;;;;5080949;28;20109;-77
2022/03/07 05:40:57;;;;;;;70.80;44.33;;;2.50;99.90;;;;;;5062260;28;20059;-77
2022/03/07 05:43:24;;;;;;;70.53;43.53;;;2.50;1.00;;;;;;5073843;28;20123;-76
2022/03/07 05:45:52;;;;;;;65.50;40.92;;;2.40;1.00;;;;;;5059186;28;20139;-77
2022/03/07 05:48:20;;;;;;;64.07;41.03;;;2.50;1.00;;;;;;5077546;28;20047;-77
2022/03/07 05:50:48;;;;;;;63.75;40.80;;;2.50;1.00;;;;;;5077443;28;20123;-77
2022/03/07 05:53:19;;;;;;;69.72;42.88;;;2.50;1.00;;;;;;5077558;28;20048;-77
2022/03/07 05:55:46;;;;;;;66.78;42.25;;;2.50;1.00;;;;;;5044835;28;20120;-78
2022/03/07 05:58:14;;;;;;;68.75;42.17;;;2.50;99.90;;;;;;5038607;28;20068;-77
2022/03/07 06:00:41;;;;;;;64.75;41.22;;;2.60;1.00;;;;;;5052307;28;20506;-77
2022/03/07 06:03:09;;;;;;;67.57;42.15;;;2.60;99.90;;;;;;5059854;28;20416;-78
2022/03/07 06:05:37;;;;;;;64.63;40.00;;;2.70;1.00;;;;;;5058134;28;20036;-76
2022/03/07 06:08:06;;;;;;;66.97;42.03;;;2.70;1.00;;;;;;5075095;28;20052;-78
2022/03/07 06:10:34;;;;;;;69.05;43.15;;;2.70;99.90;;;;;;5076338;28;20040;-77
2022/03/07 06:13:01;;;;;;;68.63;43.00;;;2.70;20.60;;;;;;5078223;28;20039;-77
2022/03/07 06:15:29;;;;;;;62.78;40.15;;;2.70;99.90;;;;;;5077212;28;20036;-78
2022/03/07 06:17:59;;;;;;;75.80;45.60;;;2.70;1.00;;;;;;5065423;28;20138;-77
2022/03/07 06:20:27;;;;;;;67.85;41.55;;;2.70;51.40;;;;;;5076608;28;20048;-77
2022/03/07 06:22:55;;;;;;;76.65;44.63;;;2.70;1.00;;;;;;5077326;28;20056;-77
2022/03/07 06:25:24;;;;;;;84.65;50.10;;;2.70;1.00;;;;;;5058792;28;20040;-77
2022/03/07 06:27:52;;;;;;;73.32;44.70;;;2.80;99.90;;;;;;5060705;28;20041;-76
2022/03/07 06:30:19;;;;;;;65.97;43.00;;;2.80;99.90;;;;;;5068060;28;20079;-77
2022/03/07 06:32:47;;;;;;;89.00;52.20;;;2.80;99.90;;;;;;5076697;28;20120;-78
2022/03/07 06:35:15;;;;;;;74.65;47.85;;;2.80;99.90;;;;;;5078581;28;20117;-76
2022/03/07 06:37:47;;;;;;;86.35;52.40;;;2.80;99.90;;;;;;5076528;28;20032;-77
2022/03/07 06:40:15;;;;;;;82.65;50.05;;;2.80;93.10;;;;;;5074467;28;20040;-77
2022/03/07 06:42:44;;;;;;;78.72;47.75;;;2.80;39.40;;;;;;5051637;28;20044;-79
2022/03/07 06:45:13;;;;;;;75.90;46.65;;;2.90;1.00;;;;;;5095656;28;20082;-77
2022/03/07 06:47:40;;;;;;;78.32;46.08;;;3.00;1.00;;;;;;5078862;28;20044;-78
2022/03/07 06:50:09;;;;;;;80.65;48.55;;;3.00;1.00;;;;;;5078512;28;20047;-77
2022/03/07 06:52:36;;;;;;;90.63;51.45;;;3.00;1.00;;;;;;5079652;28;20048;-79
2022/03/07 06:55:05;;;;;;;76.40;46.60;;;3.00;1.00;;;;;;5097736;28;20122;-77
2022/03/07 06:57:32;;;;;;;77.40;47.20;;;3.10;1.00;;;;;;5090433;28;20103;-76
2022/03/07 07:00:01;;;;;;;70.38;43.95;;;3.20;1.00;;;;;;5076332;28;20082;-77
2022/03/07 07:02:29;;;;;;;71.72;45.40;;;3.10;1.00;;;;;;5062308;28;20048;-77
2022/03/07 07:04:58;;;;;;;73.75;45.58;;;3.20;1.00;;;;;;5081247;28;20041;-79
2022/03/07 07:07:25;;;;;;;84.22;53.30;;;3.20;1.00;;;;;;5082465;28;20048;-78
2022/03/07 07:09:53;;;;;;;91.82;56.67;;;3.20;1.00;;;;;;5079344;28;20049;-76
2022/03/07 07:12:21;;;;;;;92.95;55.90;;;3.10;99.90;;;;;;5060022;28;20368;-78
2022/03/07 07:14:48;;;;;;;93.55;56.20;;;3.00;99.90;;;;;;5096757;28;20103;-77
2022/03/07 07:17:18;;;;;;;96.43;59.10;;;3.00;1.00;;;;;;5096431;28;20040;-77
2022/03/07 07:19:45;;;;;;;92.90;56.70;;;2.90;1.00;;;;;;5091571;28;20376;-76
2022/03/07 07:22:14;;;;;;;80.88;47.40;;;2.90;99.90;;;;;;5093254;28;20044;-75
2022/03/07 07:24:41;;;;;;;86.10;49.72;;;2.80;99.90;;;;;;5092596;28;20081;-76
2022/03/07 07:27:09;;;;;;;75.80;45.17;;;2.70;1.00;;;;;;5080787;28;20044;-77
2022/03/07 07:29:37;;;;;;;81.88;49.63;;;2.60;1.00;;;;;;5100881;28;20047;-77
2022/03/07 07:32:05;;;;;;;75.13;45.92;;;2.70;83.10;;;;;;5102286;28;20046;-76
2022/03/07 07:34:35;;;;;;;114.45;67.60;;;2.70;1.00;;;;;;5105394;28;20043;-77
2022/03/07 07:37:03;;;;;;;111.55;68.13;;;2.60;1.00;;;;;;5074585;28;20135;-77
2022/03/07 07:39:31;;;;;;;116.70;67.68;;;2.60;1.00;;;;;;5071390;28;20099;-77
2022/03/07 07:41:58;;;;;;;100.57;60.65;;;2.60;1.00;;;;;;5044226;28;20052;-76
2022/03/07 07:44:26;;;;;;;107.72;62.55;;;2.60;1.00;;;;;;5072839;28;20040;-78
2022/03/07 07:46:54;;;;;;;90.28;54.83;;;2.80;95.70;;;;;;5081738;28;20074;-76
2022/03/07 07:49:24;;;;;;;67.80;42.05;;;2.80;1.00;;;;;;5064052;28;20052;-76
2022/03/07 07:51:53;;;;;;;68.93;41.78;;;2.50;99.90;;;;;;5089631;28;20044;-76
2022/03/07 07:54:21;;;;;;;69.68;43.22;;;2.70;99.90;;;;;;5105692;28;20052;-77
2022/03/07 07:56:49;;;;;;;59.60;35.33;;;2.80;99.90;;;;;;5080713;28;20044;-76
2022/03/07 07:59:18;;;;;;;52.22;34.40;;;3.10;1.00;;;;;;5083778;28;20499;-78
2022/03/07 08:01:45;;;;;;;50.97;32.55;;;2.90;1.00;;;;;;5079355;28;20116;-77
2022/03/07 08:04:16;;;;;;;48.28;31.17;;;3.20;1.00;;;;;;5097698;28;20058;-76
2022/03/07 08:06:43;;;;;;;46.28;30.08;;;3.20;1.00;;;;;;5093957;28;20040;-77
2022/03/07 08:09:13;;;;;;;49.08;32.42;;;3.20;1.00;;;;;;5087441;28;20040;-77
2022/03/07 08:11:40;;;;;;;44.28;29.02;;;3.50;1.00;;;;;;5064082;28;20076;-76
2022/03/07 08:14:08;;;;;;;46.20;30.73;;;3.60;99.90;;;;;;5080391;28;20123;-77
2022/03/07 08:16:36;;;;;;;51.00;32.60;;;3.60;99.90;;;;;;5075453;28;20075;-76
2022/03/07 08:19:03;;;;;;;51.15;33.72;;;4.00;99.90;;;;;;5083454;28;20403;-77
2022/03/07 08:21:31;;;;;;;50.25;32.30;;;4.00;99.90;;;;;;5081356;28;20055;-77
2022/03/07 08:24:00;;;;;;;47.63;32.72;;;4.30;99.90;;;;;;5082380;28;20044;-77
2022/03/07 08:26:29;;;;;;;41.22;28.38;;;4.50;99.90;;;;;;5058776;28;20593;-76
2022/03/07 08:28:57;;;;;;;46.03;31.33;;;4.40;99.90;;;;;;5063803;28;20118;-76
2022/03/07 08:31:28;;;;;;;42.92;29.15;;;4.60;99.90;;;;;;5054375;28;20052;-77
2022/03/07 08:33:55;;;;;;;48.30;31.15;;;4.70;99.90;;;;;;5101957;28;20228;-76
2022/03/07 08:36:23;;;;;;;45.05;31.55;;;4.80;99.90;;;;;;5086512;28;20127;-76
2022/03/07 08:38:51;;;;;;;50.65;33.70;;;4.80;99.90;;;;;;5089243;28;20052;-77
2022/03/07 08:41:18;;;;;;;54.15;34.97;;;5.00;99.90;;;;;;5063157;28;20041;-77
2022/03/07 08:43:49;;;;;;;47.58;31.92;;;5.10;99.90;;;;;;5072137;28;20048;-77
2022/03/07 08:46:17;;;;;;;51.75;35.80;;;5.40;99.90;;;;;;5065757;28;20503;-77
2022/03/07 08:48:46;;;;;;;53.85;36.58;;;5.60;99.90;;;;;;5094608;28;20102;-77
2022/03/07 08:51:14;;;;;;;60.55;37.47;;;5.30;99.90;;;;;;5063497;28;20131;-76
2022/03/07 08:53:42;;;;;;;54.58;35.88;;;5.30;99.90;;;;;;5081690;28;20048;-78
2022/03/07 08:56:10;;;;;;;55.58;36.15;;;5.30;99.90;;;;;;5065373;28;20045;-77
2022/03/07 08:58:38;;;;;;;51.67;37.03;;;5.10;99.90;;;;;;5074927;28;20127;-76
2022/03/07 09:01:07;;;;;;;55.35;37.67;;;5.00;99.90;;;;;;5064391;28;20320;-77
2022/03/07 09:03:36;;;;;;;58.58;38.60;;;4.90;99.90;;;;;;5080514;28;20450;-75
2022/03/07 09:06:04;;;;;;;59.38;38.00;;;5.10;99.90;;;;;;5062825;28;20120;-76
2022/03/07 09:08:32;;;;;;;53.05;36.20;;;5.20;99.90;;;;;;5064297;28;20044;-77
2022/03/07 09:11:04;;;;;;;61.65;40.90;;;5.20;99.90;;;;;;5074914;28;20492;-78
2022/03/07 09:13:32;;;;;;;60.38;40.83;;;5.30;99.90;;;;;;5072473;28;20452;-77
2022/03/07 09:15:59;;;;;;;56.25;36.95;;;5.40;99.90;;;;;;5058382;28;20037;-76
2022/03/07 09:18:28;;;;;;;50.30;34.78;;;5.50;99.90;;;;;;5077019;28;20049;-77
2022/03/07 09:20:56;;;;;;;45.13;31.17;;;5.80;93.70;;;;;;5055425;28;20131;-77
2022/03/07 09:23:25;;;;;;;46.28;30.77;;;5.70;21.60;;;;;;5056272;28;20111;-76
2022/03/07 09:25:52;;;;;;;44.08;29.85;;;5.60;1.00;;;;;;5061919;28;20060;-77
2022/03/07 09:28:19;;;;;;;42.95;30.13;;;5.80;1.00;;;;;;5055906;28;20137;-78
2022/03/07 09:30:47;;;;;;;42.70;29.65;;;5.90;1.00;;;;;;5060088;28;20036;-76
2022/03/07 09:33:15;;;;;;;43.65;31.17;;;6.00;1.00;;;;;;5060989;28;20049;-76
2022/03/07 09:35:43;;;;;;;43.17;29.98;;;6.30;1.00;;;;;;5055820;28;20055;-78
2022/03/07 09:38:11;;;;;;;42.63;29.70;;;6.60;1.00;;;;;;5055723;28;20055;-76
2022/03/07 09:40:39;;;;;;;46.42;30.10;;;6.60;1.00;;;;;;5054511;28;20049;-77
2022/03/07 09:43:08;;;;;;;44.03;29.73;;;6.60;1.00;;;;;;5071835;28;20415;-76
2022/03/07 09:45:36;;;;;;;41.80;29.50;;;6.40;1.00;;;;;;5055606;28;20041;-76
2022/03/07 09:48:06;;;;;;;41.50;29.10;;;6.30;1.00;;;;;;5054819;28;20364;-76
2022/03/07 09:50:36;;;;;;;45.63;30.13;;;6.00;1.00;;;;;;5055513;28;20047;-75
2022/03/07 09:53:06;;;;;;;44.75;32.45;;;6.10;1.00;;;;;;5054073;28;20420;-76
2022/03/07 09:55:34;;;;;;;44.58;29.83;;;5.90;1.00;;;;;;5055505;28;20086;-76
2022/03/07 09:58:03;;;;;;;48.28;32.08;;;5.90;1.00;;;;;;5070650;28;20060;-76
2022/03/07 10:00:30;;;;;;;43.75;30.60;;;6.00;1.00;;;;;;5064312;28;20059;-77
2022/03/07 10:03:00;;;;;;;42.92;30.00;;;5.90;1.00;;;;;;5054160;28;20075;-76
2022/03/07 10:05:28;;;;;;;41.95;29.25;;;6.00;1.00;;;;;;5060524;28;20069;-77
2022/03/07 10:07:57;;;;;;;46.03;31.23;;;6.00;1.00;;;;;;5059718;28;20500;-76
2022/03/07 10:10:29;;;;;;;42.45;29.67;;;6.10;1.00;;;;;;5054334;28;20071;-77
2022/03/07 10:12:57;;;;;;;42.17;30.42;;;5.90;1.00;;;;;;5054682;28;20455;-76
2022/03/07 10:15:25;;;;;;;45.47;30.77;;;5.80;1.00;;;;;;5049303;28;20068;-76
2022/03/07 10:17:55;;;;;;;44.92;31.20;;;5.90;1.00;;;;;;5054310;28;20053;-77
2022/03/07 10:20:25;;;;;;;45.85;30.40;;;5.80;1.00;;;;;;5055667;28;20067;-76
2022/03/07 10:22:55;;;;;;;41.83;29.63;;;5.70;1.00;;;;;;5064902;28;20080;-77
2022/03/07 10:25:26;;;;;;;45.58;32.10;;;5.60;1.00;;;;;;5052752;28;20049;-76
2022/03/07 10:27:55;;;;;;;46.13;31.83;;;5.80;1.00;;;;;;5055488;28;20056;-76
2022/03/07 10:30:24;;;;;;;43.97;31.40;;;6.10;1.00;;;;;;5056662;28;20180;-77
2022/03/07 10:32:56;;;;;;;44.20;30.77;;;6.30;1.00;;;;;;5057234;28;20047;-76
2022/03/07 10:35:27;;;;;;;49.70;32.53;;;6.10;1.00;;;;;;5053038;28;20109;-76
2022/03/07 10:38:00;;;;;;;46.92;31.98;;;5.80;1.00;;;;;;5056939;28;20518;-77
2022/03/07 10:40:30;;;;;;;44.25;31.30;;;5.90;1.00;;;;;;5059685;28;20131;-76
2022/03/07 10:43:00;;;;;;;45.63;32.85;;;6.00;1.00;;;;;;5058274;28;20503;-77
2022/03/07 10:45:29;;;;;;;48.25;32.85;;;6.20;1.00;;;;;;5058396;28;20084;-76
2022/03/07 10:47:58;;;;;;;47.90;32.30;;;6.20;1.00;;;;;;5041488;28;20045;-76
2022/03/07 10:50:28;;;;;;;44.58;31.90;;;6.30;1.00;;;;;;5039700;28;20037;-75
2022/03/07 10:53:01;;;;;;;45.42;31.67;;;6.20;1.00;;;;;;5052765;28;20048;-76
2022/03/07 10:55:31;;;;;;;39.92;29.33;;;6.20;1.00;;;;;;5059630;28;20055;-76
2022/03/07 10:58:07;;;;;;;41.47;29.48;;;6.00;1.00;;;;;;5053525;28;20069;-76
2022/03/07 11:00:36;;;;;;;48.03;32.35;;;5.90;1.00;;;;;;5043937;28;20046;-77
2022/03/07 11:03:03;;;;;;;49.47;32.80;;;5.70;1.00;;;;;;5046282;28;20063;-76
2022/03/07 11:05:31;;;;;;;50.78;34.67;;;5.60;1.00;;;;;;5044787;28;20136;-76
2022/03/07 11:07:59;;;;;;;63.75;42.42;;;5.70;1.00;;;;;;5043874;28;20041;-75
2022/03/07 11:10:26;;;;;;;65.03;41.65;;;5.60;1.00;;;;;;5050902;28;20055;-76
2022/03/07 11:12:55;;;;;;;65.60;41.53;;;5.60;1.00;;;;;;5065737;28;20045;-76
2022/03/07 11:15:23;;;;;;;69.22;45.53;;;5.50;1.00;;;;;;5061513;28;20067;-76
2022/03/07 11:17:50;;;;;;;71.03;47.80;;;5.60;1.00;;;;;;5057707;28;20070;-76
2022/03/07 11:20:20;;;;;;;75.15;47.50;;;5.80;1.00;;;;;;5057239;28;20460;-75
2022/03/07 11:22:48;;;;;;;66.32;43.63;;;5.30;1.00;;;;;;5080197;28;20054;-76
2022/03/07 11:25:16;;;;;;;70.47;44.28;;;5.20;1.00;;;;;;5094644;28;20052;-76
2022/03/07 11:27:45;;;;;;;69.50;46.00;;;5.00;1.00;;;;;;5059711;28;20044;-75
2022/03/07 11:30:20;;;;;;;71.07;47.60;;;5.00;1.00;;;;;;5059832;28;20124;-76
2022/03/07 11:32:51;;;;;;;74.22;46.00;;;5.00;15.90;;;;;;5087265;28;20053;-76
2022/03/07 11:35:22;;;;;;;70.65;45.38;;;4.90;16.40;;;;;;5074767;28;20036;-76
2022/03/07 11:37:50;;;;;;;71.80;43.92;;;5.00;53.90;;;;;;5058443;28;20041;-76
2022/03/07 11:40:22;;;;;;;72.35;43.75;;;5.00;57.60;;;;;;5075083;28;20040;-76
2022/03/07 11:42:51;;;;;;;64.75;42.95;;;5.00;76.80;;;;;;5075022;28;20143;-76
2022/03/07 11:45:22;;;;;;;62.92;41.38;;;4.90;82.50;;;;;;5052310;28;20424;-75
2022/03/07 11:47:51;;;;;;;66.93;43.38;;;4.70;85.80;;;;;;5073759;28;20083;-75
2022/03/07 11:50:22;;;;;;;73.88;45.13;;;4.40;99.90;;;;;;5050196;28;20080;-75
2022/03/07 11:52:50;;;;;;;66.43;42.78;;;4.40;99.90;;;;;;5063258;28;20196;-76
2022/03/07 11:55:20;;;;;;;67.68;41.30;;;4.30;99.90;;;;;;5054655;28;20049;-75
2022/03/07 11:57:58;;;;;;;66.07;42.15;;;4.30;99.90;;;;;;5075968;28;20078;-76
2022/03/07 12:00:32;;;;;;;71.72;42.88;;;4.40;99.90;;;;;;5093814;28;20036;-75
2022/03/07 12:03:10;;;;;;;72.50;44.63;;;4.30;99.90;;;;;;5081749;28;20632;-76
2022/03/07 12:05:37;;;;;;;68.65;43.45;;;4.30;99.90;;;;;;5073794;28;20075;-75
2022/03/07 12:08:09;;;;;;;66.50;42.65;;;4.30;99.90;;;;;;5077594;28;20454;-76
2022/03/07 12:10:40;;;;;;;66.03;41.05;;;4.60;99.90;;;;;;5089689;28;20120;-76
2022/03/07 12:13:12;;;;;;;71.18;44.17;;;4.90;99.90;;;;;;5086561;28;20036;-75
2022/03/07 12:15:50;;;;;;;68.93;44.10;;;5.30;99.90;;;;;;5081763;28;20419;-75
2022/03/07 12:18:19;;;;;;;67.03;42.70;;;5.60;99.90;;;;;;5082761;28;20071;-75
2022/03/07 12:20:51;;;;;;;70.15;44.75;;;5.70;99.90;;;;;;5095902;28;20095;-76
2022/03/07 12:23:21;;;;;;;62.97;43.47;;;5.70;89.60;;;;;;5080737;28;20064;-78
2022/03/07 12:25:57;;;;;;;58.40;40.53;;;5.70;57.90;;;;;;5081360;28;20052;-75
2022/03/07 12:28:29;;;;;;;62.00;42.28;;;5.70;35.00;;;;;;5096280;28;20052;-75
2022/03/07 12:30:58;;;;;;;61.83;39.67;;;5.90;16.80;;;;;;5098532;28;20036;-78
2022/03/07 12:33:26;;;;;;;59.22;39.72;;;6.10;1.00;;;;;;5097055;28;20044;-76
2022/03/07 12:36:01;;;;;;;62.17;41.28;;;6.30;1.00;;;;;;5083653;28;20049;-76
2022/03/07 12:38:30;;;;;;;57.83;39.73;;;6.30;1.00;;;;;;5088579;28;20051;-77
2022/03/07 12:40:59;;;;;;;65.88;42.95;;;6.10;1.00;;;;;;5081260;28;20318;-76
2022/03/07 12:43:28;;;;;;;50.65;34.38;;;6.00;1.00;;;;;;5085264;28;20048;-76
2022/03/07 12:45:57;;;;;;;51.63;35.45;;;6.00;1.00;;;;;;5064647;28;20487;-76
2022/03/07 12:48:38;;;;;;;59.65;40.97;;;6.00;1.00;;;;;;5088237;28;20045;-76